sensor_id;sensor_type;location;lat;lon;timestamp;P1;durP1;ratioP1;P2;durP2;ratioP2
14096;SDS011;7125;48.106;11.544;2023-05-10T00:01:41;2.47;;;1.60;;
14096;SDS011;7125;48.106;11.544;2023-05-10T00:04:08;1.63;;;1.40;;
14096;SDS011;7125;48.106;11.544;2023-05-10T00:06:35;1.33;;;1.20;;
14096;SDS011;7125;48.106;11.544;2023-05-10T00:09:05;1.90;;;1.70;;
14096;SDS011;7125;48.106;11.544;2023-05-10T00:11:32;1.53;;;1.17;;
14096;SDS011;7125;48.106;11.544;2023-05-10T00:14:01;3.00;;;1.50;;
14096;SDS011;7125;48.106;11.544;2023-05-10T00:16:30;1.40;;;1.30;;
14096;SDS011;7125;48.106;11.544;2023-05-10T00:18:57;1.83;;;1.37;;
14096;SDS011;7125;48.106;11.544;2023-05-10T00:21:24;2.00;;;1.10;;
14096;SDS011;7125;48.106;11.544;2023-05-10T00:23:53;1.53;;;1.30;;
14096;SDS011;7125;48.106;11.544;2023-05-10T00:26:21;3.40;;;1.50;;
14096;SDS011;7125;48.106;11.544;2023-05-10T00:28:52;2.23;;;1.47;;
14096;SDS011;7125;48.106;11.544;2023-05-10T00:31:20;1.48;;;1.13;;
14096;SDS011;7125;48.106;11.544;2023-05-10T00:33:47;2.70;;;1.40;;
14096;SDS011;7125;48.106;11.544;2023-05-10T00:36:17;1.20;;;1.00;;
14096;SDS011;7125;48.106;11.544;2023-05-10T00:38:46;0.80;;;0.80;;
14096;SDS011;7125;48.106;11.544;2023-05-10T00:41:13;2.30;;;1.00;;
14096;SDS011;7125;48.106;11.544;2023-05-10T00:43:41;0.83;;;0.83;;
14096;SDS011;7125;48.106;11.544;2023-05-10T00:46:08;1.73;;;0.80;;
14096;SDS011;7125;48.106;11.544;2023-05-10T00:48:38;1.60;;;0.70;;
14096;SDS011;7125;48.106;11.544;2023-05-10T00:51:05;0.67;;;0.67;;
14096;SDS011;7125;48.106;11.544;2023-05-10T00:53:33;1.77;;;1.40;;
14096;SDS011;7125;48.106;11.544;2023-05-10T00:56:01;4.30;;;1.00;;
14096;SDS011;7125;48.106;11.544;2023-05-10T00:58:30;2.63;;;1.37;;
14096;SDS011;7125;48.106;11.544;2023-05-10T01:00:58;1.90;;;1.30;;
14096;SDS011;7125;48.106;11.544;2023-05-10T01:03:27;1.00;;;0.90;;
14096;SDS011;7125;48.106;11.544;2023-05-10T01:05:59;1.63;;;1.00;;
14096;SDS011;7125;48.106;11.544;2023-05-10T01:08:28;0.73;;;0.67;;
14096;SDS011;7125;48.106;11.544;2023-05-10T01:10:56;2.43;;;1.00;;
14096;SDS011;7125;48.106;11.544;2023-05-10T01:13:28;0.80;;;0.80;;
14096;SDS011;7125;48.106;11.544;2023-05-10T01:15:58;7.63;;;1.00;;
14096;SDS011;7125;48.106;11.544;2023-05-10T01:18:27;1.30;;;0.93;;
14096;SDS011;7125;48.106;11.544;2023-05-10T01:21:01;3.63;;;1.43;;
14096;SDS011;7125;48.106;11.544;2023-05-10T01:23:42;1.50;;;1.00;;
14096;SDS011;7125;48.106;11.544;2023-05-10T01:26:39;1.10;;;0.90;;
14096;SDS011;7125;48.106;11.544;2023-05-10T01:29:33;2.97;;;0.80;;
14096;SDS011;7125;48.106;11.544;2023-05-10T01:32:28;2.23;;;1.10;;
14096;SDS011;7125;48.106;11.544;2023-05-10T01:34:59;2.47;;;1.00;;
14096;SDS011;7125;48.106;11.544;2023-05-10T01:37:31;0.70;;;0.70;;
14096;SDS011;7125;48.106;11.544;2023-05-10T01:40:08;1.33;;;0.77;;
14096;SDS011;7125;48.106;11.544;2023-05-10T01:42:46;0.67;;;0.60;;
14096;SDS011;7125;48.106;11.544;2023-05-10T01:45:20;0.63;;;0.63;;
14096;SDS011;7125;48.106;11.544;2023-05-10T01:47:58;1.73;;;0.60;;
14096;SDS011;7125;48.106;11.544;2023-05-10T01:50:36;1.23;;;0.90;;
14096;SDS011;7125;48.106;11.544;2023-05-10T01:53:07;0.80;;;0.80;;
14096;SDS011;7125;48.106;11.544;2023-05-10T01:55:39;0.80;;;0.60;;
14096;SDS011;7125;48.106;11.544;2023-05-10T01:58:13;0.67;;;0.60;;
14096;SDS011;7125;48.106;11.544;2023-05-10T02:00:54;1.53;;;0.80;;
14096;SDS011;7125;48.106;11.544;2023-05-10T02:03:25;1.60;;;0.90;;
14096;SDS011;7125;48.106;11.544;2023-05-10T02:05:54;1.10;;;0.90;;
14096;SDS011;7125;48.106;11.544;2023-05-10T02:08:22;0.90;;;0.83;;
14096;SDS011;7125;48.106;11.544;2023-05-10T02:10:52;0.47;;;0.47;;
14096;SDS011;7125;48.106;11.544;2023-05-10T02:13:22;1.67;;;0.80;;
14096;SDS011;7125;48.106;11.544;2023-05-10T02:15:54;2.97;;;1.00;;
14096;SDS011;7125;48.106;11.544;2023-05-10T02:18:23;1.07;;;0.70;;
14096;SDS011;7125;48.106;11.544;2023-05-10T02:20:56;1.40;;;0.83;;
14096;SDS011;7125;48.106;11.544;2023-05-10T02:23:25;0.70;;;0.70;;
14096;SDS011;7125;48.106;11.544;2023-05-10T02:25:55;0.60;;;0.60;;
14096;SDS011;7125;48.106;11.544;2023-05-10T02:28:24;1.43;;;1.07;;
14096;SDS011;7125;48.106;11.544;2023-05-10T02:30:54;1.13;;;0.83;;
14096;SDS011;7125;48.106;11.544;2023-05-10T02:33:23;1.57;;;1.00;;
14096;SDS011;7125;48.106;11.544;2023-05-10T02:35:51;0.80;;;0.73;;
14096;SDS011;7125;48.106;11.544;2023-05-10T02:38:20;1.20;;;1.10;;
14096;SDS011;7125;48.106;11.544;2023-05-10T02:40:50;1.70;;;0.90;;
14096;SDS011;7125;48.106;11.544;2023-05-10T02:43:19;1.70;;;0.77;;
14096;SDS011;7125;48.106;11.544;2023-05-10T02:45:50;1.43;;;0.70;;
14096;SDS011;7125;48.106;11.544;2023-05-10T02:48:17;0.70;;;0.60;;
14096;SDS011;7125;48.106;11.544;2023-05-10T02:50:45;1.50;;;0.90;;
14096;SDS011;7125;48.106;11.544;2023-05-10T02:53:18;2.50;;;0.90;;
14096;SDS011;7125;48.106;11.544;2023-05-10T02:55:49;1.27;;;0.93;;
14096;SDS011;7125;48.106;11.544;2023-05-10T02:58:20;0.93;;;0.83;;
14096;SDS011;7125;48.106;11.544;2023-05-10T03:00:48;2.13;;;0.90;;
14096;SDS011;7125;48.106;11.544;2023-05-10T03:03:15;0.60;;;0.60;;
14096;SDS011;7125;48.106;11.544;2023-05-10T03:05:42;0.70;;;0.70;;
14096;SDS011;7125;48.106;11.544;2023-05-10T03:08:09;0.60;;;0.60;;
14096;SDS011;7125;48.106;11.544;2023-05-10T03:10:41;0.83;;;0.60;;
14096;SDS011;7125;48.106;11.544;2023-05-10T03:13:16;0.60;;;0.60;;
14096;SDS011;7125;48.106;11.544;2023-05-10T03:16:02;1.07;;;0.60;;
14096;SDS011;7125;48.106;11.544;2023-05-10T03:18:37;1.07;;;0.73;;
14096;SDS011;7125;48.106;11.544;2023-05-10T03:21:10;0.87;;;0.70;;
14096;SDS011;7125;48.106;11.544;2023-05-10T03:23:41;1.63;;;0.80;;
14096;SDS011;7125;48.106;11.544;2023-05-10T03:26:15;4.47;;;0.83;;
14096;SDS011;7125;48.106;11.544;2023-05-10T03:28:47;4.67;;;1.43;;
14096;SDS011;7125;48.106;11.544;2023-05-10T03:31:15;2.43;;;1.00;;
14096;SDS011;7125;48.106;11.544;2023-05-10T03:33:45;2.63;;;1.13;;
14096;SDS011;7125;48.106;11.544;2023-05-10T03:36:16;2.00;;;0.90;;
14096;SDS011;7125;48.106;11.544;2023-05-10T03:38:43;0.97;;;0.93;;
14096;SDS011;7125;48.106;11.544;2023-05-10T03:41:10;1.07;;;0.70;;
14096;SDS011;7125;48.106;11.544;2023-05-10T03:43:39;2.53;;;0.60;;
14096;SDS011;7125;48.106;11.544;2023-05-10T03:46:06;0.90;;;0.57;;
14096;SDS011;7125;48.106;11.544;2023-05-10T03:48:33;0.60;;;0.53;;
14096;SDS011;7125;48.106;11.544;2023-05-10T03:51:02;2.67;;;0.83;;
14096;SDS011;7125;48.106;11.544;2023-05-10T03:53:29;0.87;;;0.70;;
14096;SDS011;7125;48.106;11.544;2023-05-10T03:55:57;0.43;;;0.43;;
14096;SDS011;7125;48.106;11.544;2023-05-10T03:58:24;2.30;;;0.60;;
14096;SDS011;7125;48.106;11.544;2023-05-10T04:00:53;0.90;;;0.80;;
14096;SDS011;7125;48.106;11.544;2023-05-10T04:03:20;0.83;;;0.60;;
14096;SDS011;7125;48.106;11.544;2023-05-10T04:05:48;0.67;;;0.60;;
14096;SDS011;7125;48.106;11.544;2023-05-10T04:08:15;1.23;;;0.50;;
14096;SDS011;7125;48.106;11.544;2023-05-10T04:10:43;0.67;;;0.53;;
14096;SDS011;7125;48.106;11.544;2023-05-10T04:13:10;0.43;;;0.40;;
14096;SDS011;7125;48.106;11.544;2023-05-10T04:15:37;0.67;;;0.67;;
14096;SDS011;7125;48.106;11.544;2023-05-10T04:18:05;0.50;;;0.50;;
14096;SDS011;7125;48.106;11.544;2023-05-10T04:20:32;0.80;;;0.50;;
14096;SDS011;7125;48.106;11.544;2023-05-10T04:22:59;1.03;;;0.60;;
14096;SDS011;7125;48.106;11.544;2023-05-10T04:25:26;1.30;;;0.83;;
14096;SDS011;7125;48.106;11.544;2023-05-10T04:27:53;0.80;;;0.50;;
14096;SDS011;7125;48.106;11.544;2023-05-10T04:30:20;0.83;;;0.57;;
14096;SDS011;7125;48.106;11.544;2023-05-10T04:32:47;3.80;;;0.70;;
14096;SDS011;7125;48.106;11.544;2023-05-10T04:35:16;0.40;;;0.40;;
14096;SDS011;7125;48.106;11.544;2023-05-10T04:37:43;1.10;;;0.60;;
14096;SDS011;7125;48.106;11.544;2023-05-10T04:40:10;0.87;;;0.77;;
14096;SDS011;7125;48.106;11.544;2023-05-10T04:42:39;0.60;;;0.50;;
14096;SDS011;7125;48.106;11.544;2023-05-10T04:45:08;1.03;;;0.40;;
14096;SDS011;7125;48.106;11.544;2023-05-10T04:47:36;0.73;;;0.67;;
14096;SDS011;7125;48.106;11.544;2023-05-10T04:50:03;0.83;;;0.63;;
14096;SDS011;7125;48.106;11.544;2023-05-10T04:52:33;0.40;;;0.40;;
14096;SDS011;7125;48.106;11.544;2023-05-10T04:55:01;0.43;;;0.40;;
14096;SDS011;7125;48.106;11.544;2023-05-10T04:57:28;1.13;;;0.40;;
14096;SDS011;7125;48.106;11.544;2023-05-10T04:59:55;1.33;;;0.53;;
14096;SDS011;7125;48.106;11.544;2023-05-10T05:02:22;1.20;;;0.90;;
14096;SDS011;7125;48.106;11.544;2023-05-10T05:08:13;2.07;;;0.80;;
14096;SDS011;7125;48.106;11.544;2023-05-10T05:10:40;4.10;;;0.63;;
14096;SDS011;7125;48.106;11.544;2023-05-10T05:13:07;0.80;;;0.40;;
14096;SDS011;7125;48.106;11.544;2023-05-10T05:15:34;0.30;;;0.30;;
14096;SDS011;7125;48.106;11.544;2023-05-10T05:18:01;1.30;;;0.57;;
14096;SDS011;7125;48.106;11.544;2023-05-10T05:20:31;3.77;;;0.60;;
14096;SDS011;7125;48.106;11.544;2023-05-10T05:22:59;0.77;;;0.37;;
14096;SDS011;7125;48.106;11.544;2023-05-10T05:25:27;0.30;;;0.30;;
14096;SDS011;7125;48.106;11.544;2023-05-10T05:28:02;0.40;;;0.37;;
14096;SDS011;7125;48.106;11.544;2023-05-10T05:30:32;0.50;;;0.30;;
14096;SDS011;7125;48.106;11.544;2023-05-10T05:32:59;0.47;;;0.40;;
14096;SDS011;7125;48.106;11.544;2023-05-10T05:35:29;1.20;;;0.30;;
14096;SDS011;7125;48.106;11.544;2023-05-10T05:38:02;1.63;;;1.43;;
14096;SDS011;7125;48.106;11.544;2023-05-10T05:40:45;0.47;;;0.33;;
14096;SDS011;7125;48.106;11.544;2023-05-10T05:43:18;3.93;;;0.77;;
14096;SDS011;7125;48.106;11.544;2023-05-10T05:45:46;1.40;;;0.87;;
14096;SDS011;7125;48.106;11.544;2023-05-10T05:48:13;0.83;;;0.50;;
14096;SDS011;7125;48.106;11.544;2023-05-10T05:50:40;1.93;;;0.40;;
14096;SDS011;7125;48.106;11.544;2023-05-10T05:53:07;1.23;;;0.50;;
14096;SDS011;7125;48.106;11.544;2023-05-10T05:55:37;0.63;;;0.63;;
14096;SDS011;7125;48.106;11.544;2023-05-10T05:58:06;2.10;;;0.53;;
14096;SDS011;7125;48.106;11.544;2023-05-10T06:00:33;0.57;;;0.57;;
14096;SDS011;7125;48.106;11.544;2023-05-10T06:03:00;5.83;;;0.77;;
14096;SDS011;7125;48.106;11.544;2023-05-10T06:05:30;1.13;;;0.70;;
14096;SDS011;7125;48.106;11.544;2023-05-10T06:07:59;1.70;;;0.80;;
14096;SDS011;7125;48.106;11.544;2023-05-10T06:10:26;0.70;;;0.57;;
14096;SDS011;7125;48.106;11.544;2023-05-10T06:12:52;1.30;;;0.80;;
14096;SDS011;7125;48.106;11.544;2023-05-10T06:15:22;6.37;;;0.80;;
14096;SDS011;7125;48.106;11.544;2023-05-10T06:17:51;0.87;;;0.47;;
14096;SDS011;7125;48.106;11.544;2023-05-10T06:20:18;0.63;;;0.63;;
14096;SDS011;7125;48.106;11.544;2023-05-10T06:22:45;2.17;;;0.83;;
14096;SDS011;7125;48.106;11.544;2023-05-10T06:25:11;0.63;;;0.63;;
14096;SDS011;7125;48.106;11.544;2023-05-10T06:27:39;3.43;;;0.77;;
14096;SDS011;7125;48.106;11.544;2023-05-10T06:30:07;1.10;;;0.87;;
14096;SDS011;7125;48.106;11.544;2023-05-10T06:32:36;2.83;;;1.03;;
14096;SDS011;7125;48.106;11.544;2023-05-10T06:35:03;2.57;;;0.80;;
14096;SDS011;7125;48.106;11.544;2023-05-10T06:37:30;0.93;;;0.80;;
14096;SDS011;7125;48.106;11.544;2023-05-10T06:39:57;1.80;;;0.90;;
14096;SDS011;7125;48.106;11.544;2023-05-10T06:42:25;1.13;;;1.03;;
14096;SDS011;7125;48.106;11.544;2023-05-10T06:44:52;4.53;;;1.00;;
14096;SDS011;7125;48.106;11.544;2023-05-10T06:47:19;2.93;;;0.97;;
14096;SDS011;7125;48.106;11.544;2023-05-10T06:49:48;1.20;;;1.10;;
14096;SDS011;7125;48.106;11.544;2023-05-10T06:52:15;2.70;;;1.20;;
14096;SDS011;7125;48.106;11.544;2023-05-10T06:54:45;3.00;;;1.40;;
14096;SDS011;7125;48.106;11.544;2023-05-10T06:57:12;3.27;;;1.20;;
14096;SDS011;7125;48.106;11.544;2023-05-10T06:59:39;1.77;;;1.20;;
14096;SDS011;7125;48.106;11.544;2023-05-10T07:02:06;2.50;;;0.97;;
14096;SDS011;7125;48.106;11.544;2023-05-10T07:04:33;6.33;;;0.87;;
14096;SDS011;7125;48.106;11.544;2023-05-10T07:07:01;2.23;;;1.20;;
14096;SDS011;7125;48.106;11.544;2023-05-10T07:09:28;1.10;;;1.07;;
14096;SDS011;7125;48.106;11.544;2023-05-10T07:11:55;1.60;;;1.00;;
14096;SDS011;7125;48.106;11.544;2023-05-10T07:14:22;4.10;;;1.20;;
14096;SDS011;7125;48.106;11.544;2023-05-10T07:16:49;1.07;;;0.70;;
14096;SDS011;7125;48.106;11.544;2023-05-10T07:19:18;2.92;;;1.38;;
14096;SDS011;7125;48.106;11.544;2023-05-10T07:21:46;4.07;;;1.30;;
14096;SDS011;7125;48.106;11.544;2023-05-10T07:24:14;4.97;;;1.13;;
14096;SDS011;7125;48.106;11.544;2023-05-10T07:26:43;4.97;;;1.10;;
14096;SDS011;7125;48.106;11.544;2023-05-10T07:29:10;1.15;;;1.10;;
14096;SDS011;7125;48.106;11.544;2023-05-10T07:31:37;0.90;;;0.80;;
14096;SDS011;7125;48.106;11.544;2023-05-10T07:34:07;1.33;;;0.98;;
14096;SDS011;7125;48.106;11.544;2023-05-10T07:36:33;2.00;;;1.23;;
14096;SDS011;7125;48.106;11.544;2023-05-10T07:39:01;2.45;;;0.98;;
14096;SDS011;7125;48.106;11.544;2023-05-10T07:41:29;1.27;;;1.17;;
14096;SDS011;7125;48.106;11.544;2023-05-10T07:43:57;0.80;;;0.80;;
14096;SDS011;7125;48.106;11.544;2023-05-10T07:46:24;1.77;;;0.75;;
14096;SDS011;7125;48.106;11.544;2023-05-10T07:48:51;0.80;;;0.80;;
14096;SDS011;7125;48.106;11.544;2023-05-10T07:51:20;2.50;;;0.93;;
14096;SDS011;7125;48.106;11.544;2023-05-10T07:53:49;1.07;;;0.77;;
14096;SDS011;7125;48.106;11.544;2023-05-10T07:56:20;2.55;;;0.82;;
14096;SDS011;7125;48.106;11.544;2023-05-10T07:58:52;2.58;;;1.15;;
14096;SDS011;7125;48.106;11.544;2023-05-10T08:01:20;0.80;;;0.80;;
14096;SDS011;7125;48.106;11.544;2023-05-10T08:03:47;1.13;;;0.82;;
14096;SDS011;7125;48.106;11.544;2023-05-10T08:08:54;0.95;;;0.73;;
14096;SDS011;7125;48.106;11.544;2023-05-10T08:11:22;0.93;;;0.85;;
14096;SDS011;7125;48.106;11.544;2023-05-10T08:13:50;1.95;;;0.88;;
14096;SDS011;7125;48.106;11.544;2023-05-10T08:16:20;1.13;;;0.68;;
14096;SDS011;7125;48.106;11.544;2023-05-10T08:18:47;6.53;;;2.33;;
14096;SDS011;7125;48.106;11.544;2023-05-10T08:21:17;1.73;;;0.75;;
14096;SDS011;7125;48.106;11.544;2023-05-10T08:23:45;1.17;;;0.90;;
14096;SDS011;7125;48.106;11.544;2023-05-10T08:26:14;5.90;;;0.80;;
14096;SDS011;7125;48.106;11.544;2023-05-10T08:28:42;1.20;;;0.73;;
14096;SDS011;7125;48.106;11.544;2023-05-10T08:31:12;0.70;;;0.68;;
14096;SDS011;7125;48.106;11.544;2023-05-10T08:33:39;1.17;;;0.75;;
14096;SDS011;7125;48.106;11.544;2023-05-10T08:36:06;1.08;;;0.70;;
14096;SDS011;7125;48.106;11.544;2023-05-10T08:38:35;2.05;;;1.10;;
14096;SDS011;7125;48.106;11.544;2023-05-10T08:41:03;1.00;;;0.90;;
14096;SDS011;7125;48.106;11.544;2023-05-10T08:43:36;1.37;;;0.60;;
14096;SDS011;7125;48.106;11.544;2023-05-10T08:46:06;3.23;;;0.93;;
14096;SDS011;7125;48.106;11.544;2023-05-10T08:48:37;3.80;;;0.77;;
14096;SDS011;7125;48.106;11.544;2023-05-10T08:51:05;1.20;;;1.10;;
14096;SDS011;7125;48.106;11.544;2023-05-10T08:53:35;4.78;;;0.93;;
14096;SDS011;7125;48.106;11.544;2023-05-10T08:56:07;1.03;;;0.80;;
14096;SDS011;7125;48.106;11.544;2023-05-10T08:58:37;5.78;;;1.02;;
14096;SDS011;7125;48.106;11.544;2023-05-10T09:01:06;1.60;;;0.97;;
14096;SDS011;7125;48.106;11.544;2023-05-10T09:03:38;2.23;;;0.93;;
14096;SDS011;7125;48.106;11.544;2023-05-10T09:06:07;2.00;;;1.00;;
14096;SDS011;7125;48.106;11.544;2023-05-10T09:08:34;1.50;;;0.90;;
14096;SDS011;7125;48.106;11.544;2023-05-10T09:11:04;1.55;;;0.98;;
14096;SDS011;7125;48.106;11.544;2023-05-10T09:13:34;1.00;;;0.75;;
14096;SDS011;7125;48.106;11.544;2023-05-10T09:16:02;0.80;;;0.70;;
14096;SDS011;7125;48.106;11.544;2023-05-10T09:18:30;1.20;;;0.70;;
14096;SDS011;7125;48.106;11.544;2023-05-10T09:20:59;1.20;;;0.90;;
14096;SDS011;7125;48.106;11.544;2023-05-10T09:23:27;2.57;;;0.70;;
14096;SDS011;7125;48.106;11.544;2023-05-10T09:26:03;1.65;;;0.65;;
14096;SDS011;7125;48.106;11.544;2023-05-10T09:28:31;4.97;;;1.25;;
14096;SDS011;7125;48.106;11.544;2023-05-10T09:31:00;1.10;;;0.70;;
14096;SDS011;7125;48.106;11.544;2023-05-10T09:33:28;2.33;;;0.80;;
14096;SDS011;7125;48.106;11.544;2023-05-10T09:36:05;1.17;;;0.60;;
14096;SDS011;7125;48.106;11.544;2023-05-10T09:38:45;2.80;;;0.93;;
14096;SDS011;7125;48.106;11.544;2023-05-10T09:41:17;1.40;;;0.70;;
14096;SDS011;7125;48.106;11.544;2023-05-10T09:43:45;1.00;;;0.77;;
14096;SDS011;7125;48.106;11.544;2023-05-10T09:46:13;0.98;;;0.88;;
14096;SDS011;7125;48.106;11.544;2023-05-10T09:48:41;1.13;;;0.95;;
14096;SDS011;7125;48.106;11.544;2023-05-10T09:51:16;1.63;;;0.60;;
14096;SDS011;7125;48.106;11.544;2023-05-10T09:53:45;2.95;;;0.93;;
14096;SDS011;7125;48.106;11.544;2023-05-10T09:56:15;0.70;;;0.70;;
14096;SDS011;7125;48.106;11.544;2023-05-10T09:59:02;3.03;;;0.57;;
14096;SDS011;7125;48.106;11.544;2023-05-10T10:01:30;1.00;;;0.65;;
14096;SDS011;7125;48.106;11.544;2023-05-10T10:03:58;0.77;;;0.73;;
14096;SDS011;7125;48.106;11.544;2023-05-10T10:06:30;1.83;;;0.95;;
14096;SDS011;7125;48.106;11.544;2023-05-10T10:09:03;0.77;;;0.50;;
14096;SDS011;7125;48.106;11.544;2023-05-10T10:11:31;0.85;;;0.50;;
14096;SDS011;7125;48.106;11.544;2023-05-10T10:14:00;1.13;;;0.50;;
14096;SDS011;7125;48.106;11.544;2023-05-10T10:16:28;0.68;;;0.63;;
14096;SDS011;7125;48.106;11.544;2023-05-10T10:18:56;1.42;;;0.38;;
14096;SDS011;7125;48.106;11.544;2023-05-10T10:21:23;1.02;;;0.88;;
14096;SDS011;7125;48.106;11.544;2023-05-10T10:23:52;1.25;;;0.70;;
14096;SDS011;7125;48.106;11.544;2023-05-10T10:26:21;1.00;;;0.40;;
14096;SDS011;7125;48.106;11.544;2023-05-10T10:28:51;1.40;;;0.50;;
14096;SDS011;7125;48.106;11.544;2023-05-10T10:31:32;0.52;;;0.30;;
14096;SDS011;7125;48.106;11.544;2023-05-10T10:34:05;0.60;;;0.60;;
14096;SDS011;7125;48.106;11.544;2023-05-10T10:36:42;1.63;;;0.63;;
14096;SDS011;7125;48.106;11.544;2023-05-10T10:39:15;0.93;;;0.93;;
14096;SDS011;7125;48.106;11.544;2023-05-10T10:41:49;5.65;;;0.98;;
14096;SDS011;7125;48.106;11.544;2023-05-10T10:44:24;0.80;;;0.77;;
14096;SDS011;7125;48.106;11.544;2023-05-10T10:47:01;1.83;;;0.60;;
14096;SDS011;7125;48.106;11.544;2023-05-10T10:49:42;0.85;;;0.40;;
14096;SDS011;7125;48.106;11.544;2023-05-10T10:52:15;1.38;;;0.80;;
14096;SDS011;7125;48.106;11.544;2023-05-10T10:54:53;0.95;;;0.50;;
14096;SDS011;7125;48.106;11.544;2023-05-10T11:03:03;2.22;;;1.02;;
14096;SDS011;7125;48.106;11.544;2023-05-10T11:08:13;3.78;;;1.63;;
14096;SDS011;7125;48.106;11.544;2023-05-10T11:10:54;2.92;;;1.38;;
14096;SDS011;7125;48.106;11.544;2023-05-10T11:13:32;2.70;;;1.30;;
14096;SDS011;7125;48.106;11.544;2023-05-10T11:16:10;1.55;;;0.90;;
14096;SDS011;7125;48.106;11.544;2023-05-10T11:18:58;1.50;;;0.87;;
14096;SDS011;7125;48.106;11.544;2023-05-10T11:21:28;3.13;;;1.10;;
14096;SDS011;7125;48.106;11.544;2023-05-10T11:23:56;5.47;;;1.90;;
14096;SDS011;7125;48.106;11.544;2023-05-10T11:26:30;3.63;;;1.37;;
14096;SDS011;7125;48.106;11.544;2023-05-10T11:29:00;5.70;;;1.40;;
14096;SDS011;7125;48.106;11.544;2023-05-10T11:31:28;2.33;;;1.60;;
14096;SDS011;7125;48.106;11.544;2023-05-10T11:33:56;5.37;;;1.57;;
14096;SDS011;7125;48.106;11.544;2023-05-10T11:36:25;1.53;;;1.43;;
14096;SDS011;7125;48.106;11.544;2023-05-10T11:38:53;2.53;;;2.23;;
14096;SDS011;7125;48.106;11.544;2023-05-10T11:41:23;2.93;;;2.00;;
14096;SDS011;7125;48.106;11.544;2023-05-10T11:43:53;3.97;;;2.23;;
14096;SDS011;7125;48.106;11.544;2023-05-10T11:46:21;8.53;;;2.37;;
14096;SDS011;7125;48.106;11.544;2023-05-10T11:48:51;7.47;;;2.40;;
14096;SDS011;7125;48.106;11.544;2023-05-10T11:51:19;6.70;;;3.37;;
14096;SDS011;7125;48.106;11.544;2023-05-10T11:53:48;3.47;;;1.43;;
14096;SDS011;7125;48.106;11.544;2023-05-10T11:56:16;3.73;;;2.10;;
14096;SDS011;7125;48.106;11.544;2023-05-10T11:58:44;3.07;;;1.13;;
14096;SDS011;7125;48.106;11.544;2023-05-10T12:01:13;3.23;;;1.20;;
14096;SDS011;7125;48.106;11.544;2023-05-10T12:03:41;2.27;;;1.57;;
14096;SDS011;7125;48.106;11.544;2023-05-10T12:06:08;6.97;;;1.30;;
14096;SDS011;7125;48.106;11.544;2023-05-10T12:08:37;2.27;;;1.10;;
14096;SDS011;7125;48.106;11.544;2023-05-10T12:11:11;4.80;;;0.97;;
14096;SDS011;7125;48.106;11.544;2023-05-10T12:13:41;3.03;;;1.20;;
14096;SDS011;7125;48.106;11.544;2023-05-10T12:16:14;2.80;;;1.20;;
14096;SDS011;7125;48.106;11.544;2023-05-10T12:18:48;1.97;;;1.53;;
14096;SDS011;7125;48.106;11.544;2023-05-10T12:21:16;3.27;;;1.83;;
14096;SDS011;7125;48.106;11.544;2023-05-10T12:23:45;4.20;;;1.90;;
14096;SDS011;7125;48.106;11.544;2023-05-10T12:26:12;1.73;;;1.33;;
14096;SDS011;7125;48.106;11.544;2023-05-10T12:28:42;3.03;;;1.57;;
14096;SDS011;7125;48.106;11.544;2023-05-10T12:31:12;7.87;;;3.00;;
14096;SDS011;7125;48.106;11.544;2023-05-10T12:33:42;4.00;;;2.67;;
14096;SDS011;7125;48.106;11.544;2023-05-10T12:36:11;2.97;;;2.27;;
14096;SDS011;7125;48.106;11.544;2023-05-10T12:38:42;4.83;;;2.50;;
14096;SDS011;7125;48.106;11.544;2023-05-10T12:41:13;2.13;;;1.73;;
14096;SDS011;7125;48.106;11.544;2023-05-10T12:43:42;4.67;;;2.87;;
14096;SDS011;7125;48.106;11.544;2023-05-10T12:46:10;2.00;;;1.40;;
14096;SDS011;7125;48.106;11.544;2023-05-10T12:48:42;1.77;;;1.60;;
14096;SDS011;7125;48.106;11.544;2023-05-10T12:51:14;3.47;;;1.60;;
14096;SDS011;7125;48.106;11.544;2023-05-10T12:53:44;5.00;;;2.50;;
14096;SDS011;7125;48.106;11.544;2023-05-10T12:56:13;4.43;;;3.13;;
14096;SDS011;7125;48.106;11.544;2023-05-10T12:58:40;3.53;;;2.33;;
14096;SDS011;7125;48.106;11.544;2023-05-10T13:01:13;4.63;;;2.17;;
14096;SDS011;7125;48.106;11.544;2023-05-10T13:03:41;7.07;;;2.80;;
14096;SDS011;7125;48.106;11.544;2023-05-10T13:06:09;2.80;;;2.10;;
14096;SDS011;7125;48.106;11.544;2023-05-10T13:08:38;5.60;;;3.13;;
14096;SDS011;7125;48.106;11.544;2023-05-10T13:11:05;4.97;;;2.57;;
14096;SDS011;7125;48.106;11.544;2023-05-10T13:13:33;7.03;;;3.10;;
14096;SDS011;7125;48.106;11.544;2023-05-10T13:16:00;2.77;;;1.73;;
14096;SDS011;7125;48.106;11.544;2023-05-10T13:18:28;2.63;;;2.00;;
14096;SDS011;7125;48.106;11.544;2023-05-10T13:20:58;2.37;;;2.10;;
14096;SDS011;7125;48.106;11.544;2023-05-10T13:23:25;6.97;;;2.30;;
14096;SDS011;7125;48.106;11.544;2023-05-10T13:25:52;2.37;;;1.83;;
14096;SDS011;7125;48.106;11.544;2023-05-10T13:28:19;3.60;;;2.70;;
14096;SDS011;7125;48.106;11.544;2023-05-10T13:30:48;4.20;;;2.43;;
14096;SDS011;7125;48.106;11.544;2023-05-10T13:33:15;4.73;;;2.83;;
14096;SDS011;7125;48.106;11.544;2023-05-10T13:35:43;4.83;;;3.50;;
14096;SDS011;7125;48.106;11.544;2023-05-10T13:38:12;4.23;;;2.27;;
14096;SDS011;7125;48.106;11.544;2023-05-10T13:40:41;6.70;;;2.20;;
14096;SDS011;7125;48.106;11.544;2023-05-10T13:43:08;3.00;;;1.37;;
14096;SDS011;7125;48.106;11.544;2023-05-10T13:45:35;8.13;;;1.77;;
14096;SDS011;7125;48.106;11.544;2023-05-10T13:48:02;5.57;;;3.17;;
14096;SDS011;7125;48.106;11.544;2023-05-10T13:50:30;2.57;;;2.00;;
14096;SDS011;7125;48.106;11.544;2023-05-10T13:52:57;2.87;;;2.63;;
14096;SDS011;7125;48.106;11.544;2023-05-10T13:55:26;2.17;;;1.40;;
14096;SDS011;7125;48.106;11.544;2023-05-10T13:57:54;2.00;;;1.50;;
14096;SDS011;7125;48.106;11.544;2023-05-10T14:00:22;3.67;;;1.80;;
14096;SDS011;7125;48.106;11.544;2023-05-10T14:02:49;1.97;;;1.23;;
14096;SDS011;7125;48.106;11.544;2023-05-10T14:05:18;4.80;;;2.50;;
14096;SDS011;7125;48.106;11.544;2023-05-10T14:07:46;4.07;;;2.07;;
14096;SDS011;7125;48.106;11.544;2023-05-10T14:10:15;2.83;;;1.80;;
14096;SDS011;7125;48.106;11.544;2023-05-10T14:12:44;3.40;;;1.83;;
14096;SDS011;7125;48.106;11.544;2023-05-10T14:15:11;2.43;;;1.57;;
14096;SDS011;7125;48.106;11.544;2023-05-10T14:17:39;3.23;;;1.87;;
14096;SDS011;7125;48.106;11.544;2023-05-10T14:20:06;3.00;;;1.70;;
14096;SDS011;7125;48.106;11.544;2023-05-10T14:22:34;2.40;;;1.83;;
14096;SDS011;7125;48.106;11.544;2023-05-10T14:25:03;2.57;;;2.27;;
14096;SDS011;7125;48.106;11.544;2023-05-10T14:27:31;3.57;;;1.50;;
14096;SDS011;7125;48.106;11.544;2023-05-10T14:30:01;3.23;;;2.40;;
14096;SDS011;7125;48.106;11.544;2023-05-10T14:32:28;5.43;;;2.43;;
14096;SDS011;7125;48.106;11.544;2023-05-10T14:34:57;4.33;;;1.60;;
14096;SDS011;7125;48.106;11.544;2023-05-10T14:37:24;3.13;;;2.03;;
14096;SDS011;7125;48.106;11.544;2023-05-10T14:39:51;2.67;;;1.37;;
14096;SDS011;7125;48.106;11.544;2023-05-10T14:42:19;4.17;;;1.23;;
14096;SDS011;7125;48.106;11.544;2023-05-10T14:44:46;3.30;;;1.60;;
14096;SDS011;7125;48.106;11.544;2023-05-10T14:47:15;2.90;;;0.90;;
14096;SDS011;7125;48.106;11.544;2023-05-10T14:49:42;2.23;;;1.10;;
14096;SDS011;7125;48.106;11.544;2023-05-10T14:52:11;2.23;;;0.93;;
14096;SDS011;7125;48.106;11.544;2023-05-10T14:54:39;2.53;;;1.23;;
14096;SDS011;7125;48.106;11.544;2023-05-10T14:57:06;3.67;;;1.30;;
14096;SDS011;7125;48.106;11.544;2023-05-10T14:59:33;2.97;;;1.40;;
14096;SDS011;7125;48.106;11.544;2023-05-10T15:02:00;1.63;;;1.10;;
14096;SDS011;7125;48.106;11.544;2023-05-10T15:04:33;2.20;;;1.10;;
14096;SDS011;7125;48.106;11.544;2023-05-10T15:07:01;0.90;;;0.80;;
14096;SDS011;7125;48.106;11.544;2023-05-10T15:09:29;1.93;;;1.13;;
14096;SDS011;7125;48.106;11.544;2023-05-10T15:11:57;5.00;;;1.90;;
14096;SDS011;7125;48.106;11.544;2023-05-10T15:14:24;1.77;;;1.20;;
14096;SDS011;7125;48.106;11.544;2023-05-10T15:16:51;2.70;;;1.60;;